M I D A S
Marine Information and Data Acquisition System
Tripno 1620 of the Zeeleeuw from 2008-12-16 07:49:51 to 2008-12-16 15:34:48
Back to CruiseResearch ActivitiesStationsMapUnderway DataData graphs

EquipmentUnitsComment
TimeDGPSUTC
LatitudeDGPSDM.mWGS84
LongitudeDGPSDM.mWGS84
HeadingGyrodeg 
SOGDGPSknotsSpeed over ground
COGDGPSdegCourse over ground
DepthEcho soundermeters200 kHz
Missing or incorrect values are displayed as -999
Navigation data collected by the RV Zeeleeuw from 2008-12-16 07:55:19 to 2008-12-16 15:37:03
                                                                                    Next 1000 lines
Time Latitude Longitude Heading SOG COG Depth
2008-12-16 07:55:29 51°13.662 2°55.956 108.3 1 300 4.9
2008-12-16 07:55:34 51°13.662 2°55.953 108.3 1.4 294 5
2008-12-16 07:55:39 51°13.663 2°55.95 108.4 1.9 294 5
2008-12-16 07:55:44 51°13.665 2°55.945 108.8 2.3 292 5.3
2008-12-16 07:55:49 51°13.666 2°55.94 109 2.7 293 5.3
2008-12-16 07:55:54 51°13.668 2°55.934 109 3 293 -999
2008-12-16 07:55:59 51°13.67 2°55.927 109 3.3 293 -999
2008-12-16 07:56:04 51°13.671 2°55.92 108.8 3.4 293 -999
2008-12-16 07:56:09 51°13.673 2°55.913 108.4 3.6 292 -999
2008-12-16 07:56:14 51°13.675 2°55.905 107.7 3.7 291 -999
2008-12-16 07:56:19 51°13.677 2°55.897 106.5 3.9 289 -999
2008-12-16 07:56:24 51°13.679 2°55.889 105.1 4 289 -999
2008-12-16 07:56:29 51°13.681 2°55.88 103.4 4 288 -999
2008-12-16 07:56:34 51°13.682 2°55.872 101.6 4 286 -999
2008-12-16 07:56:39 51°13.683 2°55.863 99.8 4 283 -999
2008-12-16 07:56:44 51°13.685 2°55.854 96.8 4 281 -999
2008-12-16 07:56:49 51°13.686 2°55.846 94.5 4 279 -999
2008-12-16 07:56:54 51°13.686 2°55.837 92.1 3.9 278 -999
2008-12-16 07:56:59 51°13.687 2°55.829 90.3 3.8 274 -999
2008-12-16 07:57:04 51°13.688 2°55.821 87.7 3.7 273 -999
2008-12-16 07:57:09 51°13.688 2°55.813 85.7 3.6 271 -999
2008-12-16 07:57:14 51°13.688 2°55.805 83.6 3.5 270 -999
2008-12-16 07:57:19 51°13.688 2°55.798 81.9 3.4 268 -999
2008-12-16 07:57:24 51°13.687 2°55.79 79.8 3.3 266 9
2008-12-16 07:57:29 51°13.687 2°55.783 78 3.2 265 9.8
2008-12-16 07:57:34 51°13.687 2°55.776 76.4 3.1 265 10.3
2008-12-16 07:57:39 51°13.687 2°55.77 74.9 2.9 264 10.4
2008-12-16 07:57:44 51°13.686 2°55.764 73 2.8 263 10.2
2008-12-16 07:57:49 51°13.685 2°55.758 71.4 2.4 261 9.8
2008-12-16 07:57:54 51°13.685 2°55.753 69.7 2.2 262 10.1
2008-12-16 07:57:59 51°13.684 2°55.749 67.6 2 262 10.7
2008-12-16 07:58:04 51°13.684 2°55.745 65 1.8 261 10.3
2008-12-16 07:58:09 51°13.684 2°55.741 62.6 1.6 261 10.6
2008-12-16 07:58:14 51°13.683 2°55.738 60.2 1.4 263 10.9
2008-12-16 07:58:19 51°13.683 2°55.736 58 1.1 267 11.4
2008-12-16 07:58:24 51°13.684 2°55.734 55.2 0.7 279 11.8
2008-12-16 07:58:29 51°13.684 2°55.733 51.6 0.6 319 11.8
2008-12-16 07:58:34 51°13.685 2°55.732 47.3 0.7 343 11.8
2008-12-16 07:58:39 51°13.686 2°55.732 42.3 0.9 2 12
2008-12-16 07:58:44 51°13.688 2°55.733 36.8 1.3 8 12
2008-12-16 07:58:49 51°13.69 2°55.733 30.8 1.7 8 11.4
2008-12-16 07:58:54 51°13.692 2°55.734 24.4 2 5 11.4
2008-12-16 07:58:58 51°13.695 2°55.734 17.6 2.2 -999 11
2008-12-16 07:59:04 51°13.699 2°55.733 10.5 2.6 354 11.2
2008-12-16 07:59:09 51°13.703 2°55.732 3.2 3.1 352 11.1
2008-12-16 07:59:14 51°13.708 2°55.731 356.4 3.5 347 11.3
2008-12-16 07:59:19 51°13.713 2°55.728 350.5 4 343 11
2008-12-16 07:59:24 51°13.719 2°55.725 346 4.5 341 11.4
2008-12-16 07:59:29 51°13.726 2°55.72 342.7 5.1 336 10.7
2008-12-16 07:59:34 51°13.733 2°55.715 338.7 5.5 334 10.2
2008-12-16 07:59:39 51°13.74 2°55.709 335.6 5.9 333 10.3
2008-12-16 07:59:44 51°13.748 2°55.703 334.1 6.1 333 10.3
2008-12-16 07:59:49 51°13.755 2°55.696 333.5 6.5 332 10.1
2008-12-16 07:59:54 51°13.763 2°55.689 333.1 6.6 332 9.5
2008-12-16 07:59:59 51°13.772 2°55.682 332.7 6.8 331 9.3
2008-12-16 08:00:04 51°13.78 2°55.674 332.7 7 331 9.4
2008-12-16 08:00:09 51°13.789 2°55.666 332.7 7.3 331 9.4
2008-12-16 08:00:14 51°13.798 2°55.659 332.7 7.4 332 9.4
2008-12-16 08:00:19 51°13.808 2°55.651 333.2 7.5 332 9.3
2008-12-16 08:00:24 51°13.817 2°55.644 333.8 7.7 334 9.3
2008-12-16 08:00:29 51°13.827 2°55.636 334.6 7.8 334 9.3
2008-12-16 08:00:34 51°13.837 2°55.629 335 7.8 334 9.2
2008-12-16 08:00:39 51°13.847 2°55.621 335.1 8 335 9.1
2008-12-16 08:00:44 51°13.857 2°55.614 335.8 8 336 9.1
2008-12-16 08:00:49 51°13.867 2°55.606 336.5 8.1 335 9
2008-12-16 08:00:54 51°13.877 2°55.598 336.3 8.1 335 9.1
2008-12-16 08:00:59 51°13.888 2°55.591 336 8.2 335 9.1
2008-12-16 08:01:04 51°13.898 2°55.583 336.2 8.3 335 9.1
2008-12-16 08:01:09 51°13.909 2°55.575 336.2 8.4 335 9.2
2008-12-16 08:01:14 51°13.92 2°55.568 336.3 8.4 335 9.1
2008-12-16 08:01:19 51°13.93 2°55.56 336.4 8.4 336 9.2
2008-12-16 08:01:24 51°13.941 2°55.552 336.5 8.4 335 9.2
2008-12-16 08:01:29 51°13.951 2°55.545 336.5 8.4 336 9.2
2008-12-16 08:01:34 51°13.962 2°55.537 337.3 8.4 336 9.2
2008-12-16 08:01:39 51°13.973 2°55.529 337.6 8.4 335 9.2
2008-12-16 08:01:44 51°13.983 2°55.521 337 8.4 335 9.2
2008-12-16 08:01:49 51°13.993 2°55.513 336.2 8.4 335 9.1
2008-12-16 08:01:54 51°14.004 2°55.506 336.2 8.3 336 9.1
2008-12-16 08:01:59 51°14.015 2°55.498 336.8 8.4 335 9.1
2008-12-16 08:02:04 51°14.025 2°55.49 336.4 8.4 335 9
2008-12-16 08:02:09 51°14.036 2°55.482 335.8 8.4 335 9.1
2008-12-16 08:02:14 51°14.046 2°55.475 335.9 8.4 336 9.1
2008-12-16 08:02:19 51°14.057 2°55.467 336.5 8.4 335 9.1
2008-12-16 08:02:24 51°14.068 2°55.459 336.5 8.4 334 9.1
2008-12-16 08:02:29 51°14.079 2°55.451 335.7 8.4 334 9.2
2008-12-16 08:02:34 51°14.089 2°55.443 335.6 8.5 335 9.2
2008-12-16 08:02:39 51°14.1 2°55.435 336 8.5 334 9.1
2008-12-16 08:02:44 51°14.11 2°55.427 335.6 8.5 334 9.2
2008-12-16 08:02:49 51°14.12 2°55.418 334.8 8.5 333 9.1
2008-12-16 08:02:54 51°14.131 2°55.41 334.2 8.5 333 9.2
2008-12-16 08:02:59 51°14.141 2°55.401 334.1 8.5 334 9.2
2008-12-16 08:03:04 51°14.152 2°55.392 334.7 8.4 333 9.2
2008-12-16 08:03:09 51°14.162 2°55.384 334.9 8.5 332 9.2
2008-12-16 08:03:14 51°14.172 2°55.375 334.3 8.5 331 9.2
2008-12-16 08:03:19 51°14.183 2°55.365 333.1 8.5 329 9.2
2008-12-16 08:03:24 51°14.193 2°55.356 331.7 8.5 327 9.2
2008-12-16 08:03:29 51°14.202 2°55.345 329.9 8.4 325 9.2
2008-12-16 08:03:34 51°14.212 2°55.334 327.5 8.5 323 9.2
2008-12-16 08:03:39 51°14.221 2°55.322 325.1 8.5 322 9.2
2008-12-16 08:03:44 51°14.23 2°55.31 323.4 8.5 320 9.6
2008-12-16 08:03:49 51°14.238 2°55.298 322 8.4 318 9.5
2008-12-16 08:03:54 51°14.247 2°55.285 320.3 8.5 316 9.3
2008-12-16 08:03:59 51°14.255 2°55.271 317.9 8.7 314 9.2
2008-12-16 08:04:04 51°14.263 2°55.257 315.3 8.8 313 9.2
2008-12-16 08:04:09 51°14.272 2°55.243 313.7 8.9 313 9.2
2008-12-16 08:04:14 51°14.28 2°55.229 313.4 8.9 313 9.2
2008-12-16 08:04:19 51°14.289 2°55.214 313.7 9 313 9.3
2008-12-16 08:04:24 51°14.298 2°55.199 313.8 9.1 313 9.3
2008-12-16 08:04:29 51°14.306 2°55.184 313.8 9.2 312 9.2
2008-12-16 08:04:34 51°14.315 2°55.169 313.2 9.3 312 9.3
2008-12-16 08:04:39 51°14.323 2°55.153 312.5 9.3 311 9.3
2008-12-16 08:04:44 51°14.332 2°55.137 312 9.4 310 9.6
2008-12-16 08:04:49 51°14.34 2°55.122 311.6 9.4 310 9.7
2008-12-16 08:04:54 51°14.348 2°55.105 310.9 9.4 309 9.6
2008-12-16 08:04:59 51°14.356 2°55.089 309.9 9.4 309 9.7
2008-12-16 08:05:04 51°14.365 2°55.073 309.8 9.4 311 9.6
2008-12-16 08:05:09 51°14.374 2°55.058 310.9 9.4 312 9.3
2008-12-16 08:05:14 51°14.382 2°55.042 312.4 9.4 312 9.6
2008-12-16 08:05:19 51°14.391 2°55.026 313.7 9.5 312 9.5
2008-12-16 08:05:24 51°14.4 2°55.011 313.4 9.5 311 9.8
2008-12-16 08:05:29 51°14.409 2°54.995 312.5 9.6 312 9.7
2008-12-16 08:05:34 51°14.418 2°54.979 313.1 9.6 313 9.4
2008-12-16 08:05:39 51°14.427 2°54.963 314.5 9.8 313 9.3
2008-12-16 08:05:44 51°14.436 2°54.947 315.2 9.8 313 9.3
2008-12-16 08:05:49 51°14.445 2°54.932 315.9 9.9 315 9.3
2008-12-16 08:05:54 51°14.455 2°54.916 317.3 10 316 9.4
2008-12-16 08:05:59 51°14.465 2°54.901 318.4 10 316 9.1
2008-12-16 08:06:04 51°14.476 2°54.886 320 10 318 9.4
2008-12-16 08:06:09 51°14.486 2°54.871 321.8 10.1 318 9.1
2008-12-16 08:06:14 51°14.497 2°54.857 322.8 10.1 319 9
2008-12-16 08:06:19 51°14.507 2°54.842 324.1 10.2 319 9.1
2008-12-16 08:06:24 51°14.518 2°54.828 324.6 10.1 321 8.8
2008-12-16 08:06:29 51°14.529 2°54.814 326.7 10.2 322 8.8
2008-12-16 08:06:34 51°14.541 2°54.801 327.9 10.2 323 8.6
2008-12-16 08:06:39 51°14.552 2°54.787 329.1 10.1 324 8.5
2008-12-16 08:06:44 51°14.564 2°54.774 330.9 10.2 324 8.6
2008-12-16 08:06:49 51°14.575 2°54.761 332 10.2 324 8.5
2008-12-16 08:06:54 51°14.586 2°54.748 332.6 10.1 326 8.5
2008-12-16 08:06:59 51°14.598 2°54.736 333.8 10.1 326 8.4
2008-12-16 08:07:04 51°14.61 2°54.724 334.6 10.1 327 8.5
2008-12-16 08:07:09 51°14.622 2°54.711 335.2 10.1 327 8.4
2008-12-16 08:07:14 51°14.633 2°54.699 335.6 10.1 327 8.4
2008-12-16 08:07:19 51°14.645 2°54.687 335.7 10.1 326 8.5
2008-12-16 08:07:24 51°14.657 2°54.674 335.7 10.3 327 8.4
2008-12-16 08:07:29 51°14.669 2°54.662 335.3 10.4 327 8.3
2008-12-16 08:07:34 51°14.681 2°54.649 335 10.4 327 8.4
2008-12-16 08:07:39 51°14.694 2°54.637 334.9 10.4 327 8.5
2008-12-16 08:07:44 51°14.706 2°54.625 335.1 10.5 328 8.4
2008-12-16 08:07:49 51°14.718 2°54.612 335.5 10.5 328 8.4
2008-12-16 08:07:54 51°14.73 2°54.6 335.6 10.5 328 8.4
2008-12-16 08:07:59 51°14.742 2°54.588 336 10.6 329 8.4
2008-12-16 08:08:04 51°14.755 2°54.576 336.3 10.6 329 8.4
2008-12-16 08:08:09 51°14.768 2°54.564 336.6 10.6 329 8.3
2008-12-16 08:08:14 51°14.781 2°54.552 336.6 10.6 329 8.3
2008-12-16 08:08:19 51°14.793 2°54.539 336.7 10.7 329 8.3
2008-12-16 08:08:24 51°14.805 2°54.527 336.5 10.8 329 8.3
2008-12-16 08:08:29 51°14.818 2°54.514 336.5 10.9 329 8.2
2008-12-16 08:08:34 51°14.83 2°54.502 336.5 10.9 329 8.2
2008-12-16 08:08:39 51°14.843 2°54.49 336.4 10.8 329 8.3
2008-12-16 08:08:44 51°14.856 2°54.477 336.4 10.9 330 8.1
2008-12-16 08:08:49 51°14.87 2°54.465 336.7 11 329 8
2008-12-16 08:08:54 51°14.883 2°54.453 336.5 11 330 8
2008-12-16 08:08:59 51°14.896 2°54.441 336.5 11 330 7.8
2008-12-16 08:09:04 51°14.91 2°54.429 336.6 11 330 7.9
2008-12-16 08:09:09 51°14.923 2°54.417 336.7 11.1 330 7.6
2008-12-16 08:09:14 51°14.937 2°54.404 336.4 11.1 330 7.1
2008-12-16 08:09:19 51°14.95 2°54.392 336.4 11 330 6.9
2008-12-16 08:09:24 51°14.963 2°54.38 336.7 11 330 6.9
2008-12-16 08:09:29 51°14.976 2°54.368 336.7 11.1 330 7
2008-12-16 08:09:34 51°14.99 2°54.355 336.7 11.1 330 7.1
2008-12-16 08:09:39 51°15.003 2°54.343 336.7 11.2 330 6.8
2008-12-16 08:09:44 51°15.017 2°54.33 336.7 11.3 330 7.2
2008-12-16 08:09:49 51°15.03 2°54.318 336.6 11.4 331 5.4
2008-12-16 08:09:54 51°15.044 2°54.306 336.8 11.4 331 7.4
2008-12-16 08:09:59 51°15.058 2°54.294 337.5 11.5 332 -999
2008-12-16 08:10:04 51°15.072 2°54.282 338 11.6 332 7.5
2008-12-16 08:10:09 51°15.087 2°54.269 338.3 11.8 332 8.5
2008-12-16 08:10:14 51°15.101 2°54.257 338.3 11.8 332 9.2
2008-12-16 08:10:18 51°15.112 2°54.247 338.2 11.9 332 9.4
2008-12-16 08:10:24 51°15.13 2°54.232 337.9 12.1 331 9.9
2008-12-16 08:10:29 51°15.145 2°54.219 337.6 12.1 331 9.8
2008-12-16 08:10:34 51°15.159 2°54.206 337.2 12.2 330 10
2008-12-16 08:10:39 51°15.174 2°54.192 336.7 12.1 330 9.4
2008-12-16 08:10:44 51°15.188 2°54.179 336.3 12.1 330 9.7
2008-12-16 08:10:49 51°15.203 2°54.165 335.7 12.1 330 10.1
2008-12-16 08:10:54 51°15.217 2°54.152 335.7 12.1 330 10.1
2008-12-16 08:10:59 51°15.232 2°54.138 335.7 12.1 329 10.1
2008-12-16 08:11:04 51°15.246 2°54.125 335.2 12.1 331 10
2008-12-16 08:11:09 51°15.261 2°54.111 335.9 12.1 330 10.3
2008-12-16 08:11:14 51°15.276 2°54.099 336.2 12.1 331 9.4
2008-12-16 08:11:19 51°15.29 2°54.085 336.8 12.1 330 9.4
2008-12-16 08:11:24 51°15.305 2°54.072 337 12.1 331 9
2008-12-16 08:11:29 51°15.319 2°54.06 337.2 12.1 331 9.3
2008-12-16 08:11:34 51°15.334 2°54.047 337.5 12.1 332 9.9
2008-12-16 08:11:39 51°15.349 2°54.034 337.8 12.1 331 9.8
2008-12-16 08:11:44 51°15.364 2°54.021 337.8 12.1 331 10
2008-12-16 08:11:49 51°15.378 2°54.008 337.8 12.1 331 10
2008-12-16 08:11:54 51°15.393 2°53.995 337.6 12.1 331 9.9
2008-12-16 08:11:59 51°15.408 2°53.982 337.5 12.2 331 10.4
2008-12-16 08:12:04 51°15.422 2°53.969 337.5 12.1 331 10.1
2008-12-16 08:12:09 51°15.437 2°53.956 337.6 12.1 332 10.2
2008-12-16 08:12:14 51°15.452 2°53.944 337.8 12.1 331 10.1
2008-12-16 08:12:19 51°15.467 2°53.931 338 12.1 331 10
2008-12-16 08:12:24 51°15.481 2°53.918 338 12.2 330 10.2
2008-12-16 08:12:29 51°15.496 2°53.904 337.6 12.1 330 9.9
2008-12-16 08:12:34 51°15.51 2°53.891 337.3 12.1 331 10.1
2008-12-16 08:12:39 51°15.525 2°53.879 337.2 12.1 331 10.1
2008-12-16 08:12:44 51°15.54 2°53.866 337.8 12.1 331 9.9
2008-12-16 08:12:49 51°15.555 2°53.853 337.8 12.1 331 9.8
2008-12-16 08:12:54 51°15.571 2°53.84 337.9 12.1 331 9.8
2008-12-16 08:12:59 51°15.586 2°53.827 338.1 12.1 331 9.5
2008-12-16 08:13:04 51°15.6 2°53.814 338.1 12.1 330 9.6
2008-12-16 08:13:09 51°15.615 2°53.8 338 12.1 330 9.5
2008-12-16 08:13:14 51°15.63 2°53.787 337.9 12.1 330 9.4
2008-12-16 08:13:19 51°15.644 2°53.774 337.9 12.1 330 9.5
2008-12-16 08:13:24 51°15.659 2°53.76 338.1 12.2 330 9.5
2008-12-16 08:13:29 51°15.673 2°53.746 338.2 12.2 330 9.5
2008-12-16 08:13:34 51°15.688 2°53.733 337.8 12.2 331 9.5
2008-12-16 08:13:39 51°15.702 2°53.72 338.4 12.1 331 9.5
2008-12-16 08:13:44 51°15.717 2°53.707 339.1 12.2 331 9.6
2008-12-16 08:13:49 51°15.731 2°53.693 339.2 12.2 330 9.5
2008-12-16 08:13:54 51°15.746 2°53.68 339.3 12.2 331 9.6
2008-12-16 08:13:59 51°15.761 2°53.667 339.2 12.2 332 9.7
2008-12-16 08:14:04 51°15.776 2°53.654 340.1 12.3 331 9.6
2008-12-16 08:14:09 51°15.79 2°53.642 340.3 12.2 332 9.8
2008-12-16 08:14:14 51°15.805 2°53.628 340.6 12.2 330 9.6
2008-12-16 08:14:19 51°15.82 2°53.615 340 12.2 330 9.7
2008-12-16 08:14:24 51°15.835 2°53.601 339.5 12.3 329 9.8
2008-12-16 08:14:29 51°15.849 2°53.587 338.8 12.2 330 9.8
2008-12-16 08:14:34 51°15.864 2°53.573 338.5 12.2 329 9.8
2008-12-16 08:14:39 51°15.878 2°53.559 338.5 12.2 329 9.8
2008-12-16 08:14:44 51°15.893 2°53.545 338.3 12.3 330 9.8
2008-12-16 08:14:49 51°15.907 2°53.531 338.5 12.3 329 9.7
2008-12-16 08:14:54 51°15.922 2°53.517 338.5 12.3 329 9.9
2008-12-16 08:14:59 51°15.937 2°53.504 338.5 12.3 329 9.9
2008-12-16 08:15:04 51°15.952 2°53.491 338.3 12.2 331 9.8
2008-12-16 08:15:09 51°15.967 2°53.478 338.7 12.2 332 9.9
2008-12-16 08:15:14 51°15.982 2°53.466 339.6 12.2 333 9.7
2008-12-16 08:15:19 51°15.997 2°53.453 340.1 12.2 332 9.9
2008-12-16 08:15:24 51°16.012 2°53.44 340.1 12.2 332 10
2008-12-16 08:15:29 51°16.027 2°53.427 340.1 12.2 332 10
2008-12-16 08:15:34 51°16.042 2°53.415 339.9 12.2 332 10
2008-12-16 08:15:39 51°16.056 2°53.402 339.6 12.2 332 10
2008-12-16 08:15:44 51°16.071 2°53.389 339.6 12.2 332 10
2008-12-16 08:15:49 51°16.086 2°53.376 339.6 12.3 332 10.1
2008-12-16 08:15:54 51°16.102 2°53.363 339.6 12.2 332 10.1
2008-12-16 08:15:59 51°16.117 2°53.351 339.7 12.3 332 10.2
2008-12-16 08:16:04 51°16.132 2°53.338 339.9 12.3 332 10.1
2008-12-16 08:16:09 51°16.147 2°53.325 340.1 12.3 332 10.2
2008-12-16 08:16:14 51°16.162 2°53.312 340.1 12.3 332 10.3
2008-12-16 08:16:19 51°16.177 2°53.299 340 12.3 332 10.2
2008-12-16 08:16:24 51°16.192 2°53.286 339.9 12.3 332 10.2
2008-12-16 08:16:29 51°16.207 2°53.273 339.9 12.3 332 10.2
2008-12-16 08:16:34 51°16.222 2°53.26 339.9 12.3 332 10.3
2008-12-16 08:16:39 51°16.237 2°53.248 340 12.3 332 10.2
2008-12-16 08:16:44 51°16.252 2°53.235 340.3 12.4 331 10.3
2008-12-16 08:16:49 51°16.267 2°53.222 340 12.3 332 10.4
2008-12-16 08:16:54 51°16.282 2°53.208 340 12.3 331 10.3
2008-12-16 08:16:58 51°16.294 2°53.198 339.9 12.3 332 10.4
2008-12-16 08:17:04 51°16.313 2°53.183 340.2 12.3 332 10.4
2008-12-16 08:17:09 51°16.328 2°53.17 340.3 12.3 332 10.3
2008-12-16 08:17:14 51°16.343 2°53.157 340 12.3 332 10.3
2008-12-16 08:17:19 51°16.358 2°53.145 340 12.4 333 10.3
2008-12-16 08:17:24 51°16.373 2°53.132 340.7 12.3 332 10.3
2008-12-16 08:17:29 51°16.389 2°53.119 340.7 12.3 333 10.2
2008-12-16 08:17:34 51°16.404 2°53.107 340.7 12.3 333 10.3
2008-12-16 08:17:39 51°16.419 2°53.094 340.7 12.4 333 10.3
2008-12-16 08:17:44 51°16.434 2°53.082 340.9 12.3 333 10.3
2008-12-16 08:17:49 51°16.449 2°53.07 341 12.3 333 10.3
2008-12-16 08:17:54 51°16.465 2°53.057 340.8 12.4 332 10.3
2008-12-16 08:17:59 51°16.48 2°53.044 340 12.4 333 10.3
2008-12-16 08:18:04 51°16.495 2°53.031 340 12.3 333 10.2
2008-12-16 08:18:09 51°16.51 2°53.019 340.6 12.3 333 10.3
2008-12-16 08:18:14 51°16.525 2°53.007 341 12.3 333 10.2
2008-12-16 08:18:19 51°16.541 2°52.995 341.1 12.3 333 10.1
2008-12-16 08:18:24 51°16.556 2°52.982 340.7 12.3 333 10.4
2008-12-16 08:18:29 51°16.571 2°52.97 340.3 12.2 333 10.3
2008-12-16 08:18:34 51°16.586 2°52.957 340.3 12.3 333 10.2
2008-12-16 08:18:39 51°16.601 2°52.945 340.2 12.2 333 10.1
2008-12-16 08:18:44 51°16.616 2°52.933 340 12.2 333 10
2008-12-16 08:18:49 51°16.631 2°52.92 340 12.2 333 9.9
2008-12-16 08:18:54 51°16.646 2°52.908 339.9 12.2 333 9.8
2008-12-16 08:18:59 51°16.662 2°52.896 339.9 12.2 333 9.9
2008-12-16 08:19:04 51°16.677 2°52.883 340.1 12.2 331 9.8
2008-12-16 08:19:09 51°16.692 2°52.871 339.2 12.2 333 9.6
2008-12-16 08:19:14 51°16.707 2°52.858 339.2 12.2 333 9.5
2008-12-16 08:19:19 51°16.722 2°52.847 339.7 12.2 334 9.3
2008-12-16 08:19:24 51°16.737 2°52.835 340.5 12.1 334 9.2
2008-12-16 08:19:29 51°16.752 2°52.823 340.8 12.1 334 8.9
2008-12-16 08:19:34 51°16.767 2°52.811 340.7 12 332 8.6
2008-12-16 08:19:39 51°16.781 2°52.799 339.6 11.9 333 8.3
2008-12-16 08:19:44 51°16.796 2°52.786 339.1 12 332 8.1
2008-12-16 08:19:49 51°16.81 2°52.773 338.5 11.9 332 8
2008-12-16 08:19:54 51°16.825 2°52.761 338.2 11.9 331 8.1
2008-12-16 08:19:59 51°16.839 2°52.748 337.8 11.9 332 8
2008-12-16 08:20:04 51°16.854 2°52.736 337.6 11.9 331 7.8
2008-12-16 08:20:09 51°16.868 2°52.723 337.5 12 331 7.8
2008-12-16 08:20:14 51°16.883 2°52.71 337.3 11.9 331 7.8
2008-12-16 08:20:19 51°16.897 2°52.698 337.3 11.9 331 7.8
2008-12-16 08:20:24 51°16.912 2°52.685 337.3 12 331 8
2008-12-16 08:20:29 51°16.927 2°52.672 337.4 12 332 8.1
2008-12-16 08:20:34 51°16.941 2°52.659 337.7 12.1 331 8.1
2008-12-16 08:20:39 51°16.956 2°52.647 337.7 12 331 8.2
2008-12-16 08:20:44 51°16.971 2°52.634 337.8 12.1 331 8.3
2008-12-16 08:20:49 51°16.986 2°52.621 337.8 12.1 331 8.4
2008-12-16 08:20:54 51°17 2°52.608 337.7 12.1 331 8.4
2008-12-16 08:20:59 51°17.015 2°52.594 337.3 12.1 330 8.3
2008-12-16 08:21:04 51°17.03 2°52.582 337.2 12 332 8.1
2008-12-16 08:21:09 51°17.044 2°52.569 337.7 11.9 331 8.2
2008-12-16 08:21:14 51°17.059 2°52.556 337.8 11.9 331 8.1
2008-12-16 08:21:19 51°17.073 2°52.543 337.8 12 331 8
2008-12-16 08:21:24 51°17.088 2°52.53 337.7 12 331 8.1
2008-12-16 08:21:29 51°17.102 2°52.518 337.7 12 331 8.2
2008-12-16 08:21:34 51°17.117 2°52.505 337.8 12 331 8.1
2008-12-16 08:21:39 51°17.132 2°52.492 337.9 12 331 8.2
2008-12-16 08:21:44 51°17.146 2°52.479 338 12.1 331 8.3
2008-12-16 08:21:49 51°17.161 2°52.466 338 12.1 331 8.4
2008-12-16 08:21:54 51°17.176 2°52.453 337.8 12.1 331 8.5
2008-12-16 08:21:59 51°17.191 2°52.44 337.8 12.1 332 8.5
2008-12-16 08:22:04 51°17.205 2°52.428 338.4 12.1 331 8.4
2008-12-16 08:22:09 51°17.22 2°52.415 338.5 12.2 331 8.4
2008-12-16 08:22:14 51°17.235 2°52.402 338.3 12.2 331 8.6
2008-12-16 08:22:19 51°17.25 2°52.389 338.2 12.2 331 8.7
2008-12-16 08:22:24 51°17.265 2°52.376 338.2 12.2 331 8.7
2008-12-16 08:22:29 51°17.28 2°52.363 338.3 12.2 331 8.7
2008-12-16 08:22:34 51°17.294 2°52.349 338.3 12.2 329 8.7
2008-12-16 08:22:39 51°17.308 2°52.335 336.7 12.2 329 8.8
2008-12-16 08:22:44 51°17.323 2°52.321 335.9 12.2 328 8.9
2008-12-16 08:22:49 51°17.337 2°52.306 335.2 12.2 328 8.8
2008-12-16 08:22:54 51°17.351 2°52.292 334.9 12.2 328 8.9
2008-12-16 08:22:59 51°17.365 2°52.277 334.9 12.2 327 9
2008-12-16 08:23:04 51°17.38 2°52.263 334.4 12.3 327 8.9
2008-12-16 08:23:09 51°17.394 2°52.248 334 12.2 327 8.9
2008-12-16 08:23:14 51°17.408 2°52.233 333.9 12.2 326 8.8
2008-12-16 08:23:19 51°17.422 2°52.217 333.4 12.2 325 9
2008-12-16 08:23:24 51°17.436 2°52.202 332.7 12.3 324 8.9
2008-12-16 08:23:29 51°17.449 2°52.186 332 12.2 325 8.9
2008-12-16 08:23:34 51°17.463 2°52.17 331.4 12.2 325 8.9
2008-12-16 08:23:39 51°17.477 2°52.154 331.4 12.2 324 8.9
2008-12-16 08:23:44 51°17.491 2°52.138 330.9 12.3 324 8.9
2008-12-16 08:23:49 51°17.505 2°52.123 330.7 12.3 324 9
2008-12-16 08:23:54 51°17.518 2°52.107 330.7 12.3 324 9
2008-12-16 08:23:59 51°17.532 2°52.091 330.7 12.2 324 8.9
2008-12-16 08:24:04 51°17.545 2°52.074 330.4 12.3 322 9
2008-12-16 08:24:09 51°17.559 2°52.057 329.5 12.3 322 9
2008-12-16 08:24:14 51°17.572 2°52.04 328.9 12.3 321 8.9
2008-12-16 08:24:19 51°17.586 2°52.024 328.3 12.3 322 9
2008-12-16 08:24:24 51°17.599 2°52.007 328.1 12.3 321 8.9
2008-12-16 08:24:29 51°17.612 2°51.99 327.8 12.3 321 8.9
2008-12-16 08:24:34 51°17.626 2°51.973 327.6 12.3 321 8.8
2008-12-16 08:24:39 51°17.639 2°51.956 327.6 12.3 321 8.8
2008-12-16 08:24:44 51°17.652 2°51.939 327.5 12.3 322 8.7
2008-12-16 08:24:49 51°17.665 2°51.922 327.6 12.3 322 8.9
2008-12-16 08:24:54 51°17.679 2°51.905 327.8 12.3 322 8.8
2008-12-16 08:24:59 51°17.692 2°51.888 327.8 12.3 321 8.6
2008-12-16 08:25:04 51°17.706 2°51.871 327.5 12.3 321 8.6
2008-12-16 08:25:09 51°17.719 2°51.854 327.2 12.3 321 8.6
2008-12-16 08:25:14 51°17.732 2°51.837 327.2 12.3 321 8.6
2008-12-16 08:25:19 51°17.745 2°51.819 327.4 12.3 321 8.6
2008-12-16 08:25:24 51°17.758 2°51.802 327.5 12.3 320 8.6
2008-12-16 08:25:29 51°17.772 2°51.785 326.9 12.3 321 8.5
2008-12-16 08:25:34 51°17.785 2°51.767 326.9 12.4 320 8.5
2008-12-16 08:25:39 51°17.798 2°51.75 326.9 12.3 320 8.5
2008-12-16 08:25:44 51°17.811 2°51.732 326.6 12.4 320 8.5
2008-12-16 08:25:49 51°17.824 2°51.714 326.5 12.4 320 8.6
2008-12-16 08:25:54 51°17.838 2°51.697 326.6 12.4 321 8.4
2008-12-16 08:25:59 51°17.851 2°51.68 327.3 12.4 321 8.5
2008-12-16 08:26:04 51°17.865 2°51.663 327.6 12.4 322 8.6
2008-12-16 08:26:09 51°17.878 2°51.646 328.4 12.4 322 8.7
2008-12-16 08:26:14 51°17.891 2°51.629 328.8 12.4 321 8.7
2008-12-16 08:26:19 51°17.905 2°51.611 328.7 12.4 320 8.6
2008-12-16 08:26:24 51°17.918 2°51.594 327.6 12.4 319 8.9
2008-12-16 08:26:29 51°17.931 2°51.576 326.8 12.4 319 8.9
2008-12-16 08:26:34 51°17.944 2°51.557 326.5 12.4 319 8.9
2008-12-16 08:26:39 51°17.957 2°51.539 326.1 12.5 318 8.9
2008-12-16 08:26:44 51°17.969 2°51.521 325.4 12.4 318 9
2008-12-16 08:26:49 51°17.982 2°51.503 325.3 12.5 319 9.1
2008-12-16 08:26:54 51°17.995 2°51.484 325.4 12.5 318 9.2
2008-12-16 08:26:59 51°18.008 2°51.466 325.4 12.5 319 9.2
2008-12-16 08:27:04 51°18.021 2°51.447 325.4 12.5 318 9.4
2008-12-16 08:27:09 51°18.034 2°51.429 325.4 12.5 318 9.5
2008-12-16 08:27:14 51°18.047 2°51.41 325.1 12.5 318 9.5
2008-12-16 08:27:19 51°18.06 2°51.392 325.3 12.5 318 9.7
2008-12-16 08:27:24 51°18.073 2°51.374 325.5 12.6 318 9.8
2008-12-16 08:27:29 51°18.086 2°51.355 325.3 12.5 319 10
2008-12-16 08:27:34 51°18.099 2°51.337 325.4 12.6 319 10
2008-12-16 08:27:39 51°18.112 2°51.318 325.6 12.6 318 10.1
2008-12-16 08:27:44 51°18.125 2°51.3 325.5 12.6 318 10.2
2008-12-16 08:27:49 51°18.138 2°51.281 325.4 12.5 318 10.3
2008-12-16 08:27:54 51°18.151 2°51.263 325.4 12.6 319 10.4
2008-12-16 08:27:59 51°18.164 2°51.244 325.5 12.5 318 10.6
2008-12-16 08:28:04 51°18.177 2°51.225 325.3 12.6 318 10.7
2008-12-16 08:28:09 51°18.19 2°51.207 325.3 12.6 318 10.9
2008-12-16 08:28:14 51°18.203 2°51.188 325.3 12.6 318 10.9
2008-12-16 08:28:19 51°18.216 2°51.17 325.2 12.6 318 11
2008-12-16 08:28:24 51°18.229 2°51.151 325.2 12.6 318 11.1
2008-12-16 08:28:29 51°18.242 2°51.133 325.3 12.6 318 11.1
2008-12-16 08:28:34 51°18.255 2°51.114 325.4 12.5 318 11.2
2008-12-16 08:28:39 51°18.268 2°51.096 325.3 12.6 318 11.4
2008-12-16 08:28:44 51°18.281 2°51.077 325.2 12.6 319 11.4
2008-12-16 08:28:49 51°18.294 2°51.059 325.7 12.6 318 11.5
2008-12-16 08:28:54 51°18.307 2°51.04 325.9 12.6 318 11.6
2008-12-16 08:28:59 51°18.32 2°51.022 325.6 12.5 318 11.6
2008-12-16 08:29:04 51°18.333 2°51.004 325.6 12.5 319 11.8
2008-12-16 08:29:09 51°18.346 2°50.986 326.4 12.5 318 11.7
2008-12-16 08:29:14 51°18.359 2°50.967 326.3 12.5 318 11.8
2008-12-16 08:29:19 51°18.372 2°50.949 325.9 12.5 318 11.8
2008-12-16 08:29:24 51°18.385 2°50.931 325.9 12.5 318 11.9
2008-12-16 08:29:29 51°18.398 2°50.912 325.8 12.6 318 12
2008-12-16 08:29:34 51°18.411 2°50.893 325.5 12.6 318 12.1
2008-12-16 08:29:39 51°18.424 2°50.874 325.6 12.5 318 12.1
2008-12-16 08:29:44 51°18.437 2°50.856 325.7 12.6 318 12.3
2008-12-16 08:29:49 51°18.45 2°50.837 325.6 12.6 317 12.3
2008-12-16 08:29:54 51°18.463 2°50.818 325.4 12.6 318 12.4
2008-12-16 08:29:59 51°18.476 2°50.799 325.6 12.6 318 12.4
2008-12-16 08:30:04 51°18.489 2°50.781 326.1 12.7 318 12.5
2008-12-16 08:30:09 51°18.502 2°50.762 326.1 12.7 318 12.5
2008-12-16 08:30:14 51°18.516 2°50.743 326.1 12.7 319 12.6
2008-12-16 08:30:19 51°18.529 2°50.725 327 12.7 320 12.6
2008-12-16 08:30:24 51°18.542 2°50.707 327.7 12.7 319 12.6
2008-12-16 08:30:29 51°18.556 2°50.688 328 12.7 319 12.6
2008-12-16 08:30:34 51°18.569 2°50.669 327.6 12.7 317 12.7
2008-12-16 08:30:39 51°18.582 2°50.651 326.7 12.7 318 12.6
2008-12-16 08:30:44 51°18.595 2°50.631 326.5 12.6 317 12.7
2008-12-16 08:30:49 51°18.608 2°50.613 326.2 12.7 317 12.8
2008-12-16 08:30:54 51°18.62 2°50.593 325.8 12.7 316 12.7
2008-12-16 08:30:59 51°18.633 2°50.574 325.4 12.6 317 12.9
2008-12-16 08:31:04 51°18.646 2°50.555 325.7 12.7 317 12.8
2008-12-16 08:31:09 51°18.659 2°50.536 325.7 12.7 317 12.8
2008-12-16 08:31:14 51°18.672 2°50.517 325.7 12.7 317 12.9
2008-12-16 08:31:19 51°18.685 2°50.498 326.1 12.7 318 12.8
2008-12-16 08:31:24 51°18.698 2°50.479 326.3 12.7 318 12.8
2008-12-16 08:31:29 51°18.711 2°50.46 326.5 12.7 317 12.9
2008-12-16 08:31:34 51°18.724 2°50.442 326.4 12.7 318 12.8
2008-12-16 08:31:39 51°18.737 2°50.423 326.4 12.7 318 12.9
2008-12-16 08:31:44 51°18.75 2°50.404 326.3 12.7 318 12.8
2008-12-16 08:31:49 51°18.763 2°50.385 326.5 12.7 317 12.7
2008-12-16 08:31:54 51°18.776 2°50.366 326.5 12.7 318 12.7
2008-12-16 08:31:59 51°18.789 2°50.347 326.2 12.7 318 12.8
2008-12-16 08:32:04 51°18.802 2°50.328 326 12.7 318 12.6
2008-12-16 08:32:09 51°18.815 2°50.31 326.4 12.7 319 12.5
2008-12-16 08:32:14 51°18.828 2°50.291 327 12.7 318 12.4
2008-12-16 08:32:19 51°18.842 2°50.272 326.9 12.7 319 12.5
2008-12-16 08:32:24 51°18.855 2°50.254 327.2 12.7 319 12.2
2008-12-16 08:32:29 51°18.868 2°50.235 327.2 12.7 319 12.1
2008-12-16 08:32:34 51°18.882 2°50.217 327.6 12.7 319 11.9
2008-12-16 08:32:39 51°18.895 2°50.199 327.6 12.7 320 11.6
2008-12-16 08:32:44 51°18.908 2°50.18 327.8 12.7 319 11.7
2008-12-16 08:32:49 51°18.921 2°50.162 327.7 12.8 319 11.6
2008-12-16 08:32:54 51°18.935 2°50.143 327.4 12.7 320 11.4
2008-12-16 08:32:59 51°18.949 2°50.126 328 12.7 321 11.2
2008-12-16 08:33:04 51°18.962 2°50.107 328.9 12.7 320 11
2008-12-16 08:33:09 51°18.976 2°50.089 328.6 12.8 320 11
2008-12-16 08:33:14 51°18.989 2°50.071 328.3 12.8 319 10.9
2008-12-16 08:33:19 51°19.002 2°50.052 327.8 12.8 319 10.7
2008-12-16 08:33:24 51°19.016 2°50.034 327.6 12.7 320 10.5
2008-12-16 08:33:29 51°19.029 2°50.016 327.7 12.7 319 10.4
2008-12-16 08:33:34 51°19.043 2°49.997 327.7 12.8 319 10.3
2008-12-16 08:33:39 51°19.056 2°49.979 327.4 12.8 319 10.3
2008-12-16 08:33:44 51°19.07 2°49.961 327.4 12.8 319 10.1
2008-12-16 08:33:49 51°19.083 2°49.942 327.6 12.8 320 9.9
2008-12-16 08:33:54 51°19.097 2°49.924 327.6 12.8 319 9.9
2008-12-16 08:33:59 51°19.11 2°49.905 327.6 12.8 319 9.6
2008-12-16 08:34:04 51°19.124 2°49.887 327.5 12.8 319 9.4
2008-12-16 08:34:09 51°19.137 2°49.868 327.5 12.8 319 9.3
2008-12-16 08:34:14 51°19.15 2°49.85 327.5 12.8 319 9.3
2008-12-16 08:34:19 51°19.164 2°49.831 327.1 12.8 319 9.4
2008-12-16 08:34:24 51°19.177 2°49.812 326.9 12.9 319 9.4
2008-12-16 08:34:29 51°19.191 2°49.794 326.8 12.9 319 9.5
2008-12-16 08:34:34 51°19.204 2°49.775 326.9 12.9 319 10.1
2008-12-16 08:34:39 51°19.218 2°49.756 327 13 319 10.4
2008-12-16 08:34:44 51°19.232 2°49.737 326.8 13 319 10.4
2008-12-16 08:34:49 51°19.245 2°49.718 326.8 13 318 10.5
2008-12-16 08:34:54 51°19.259 2°49.699 326.6 13 319 10.7
2008-12-16 08:34:59 51°19.272 2°49.68 326.5 13 319 10.7
2008-12-16 08:35:04 51°19.286 2°49.661 326.5 13 319 10.7
2008-12-16 08:35:09 51°19.3 2°49.643 326.9 13 319 10.5
2008-12-16 08:35:14 51°19.313 2°49.624 327.1 13 319 10.5
2008-12-16 08:35:19 51°19.327 2°49.605 327 13 319 11
2008-12-16 08:35:24 51°19.34 2°49.586 326.8 13 319 11.3
2008-12-16 08:35:29 51°19.354 2°49.567 326.7 13 319 11.7
2008-12-16 08:35:34 51°19.368 2°49.548 326.7 13 320 12
2008-12-16 08:35:39 51°19.382 2°49.529 327.2 13.1 319 12.3
2008-12-16 08:35:44 51°19.395 2°49.51 327.3 13.1 320 12.5
2008-12-16 08:35:49 51°19.409 2°49.491 327.1 13.1 319 12.6
2008-12-16 08:35:54 51°19.423 2°49.473 327.1 13.1 319 12.8
2008-12-16 08:35:59 51°19.437 2°49.453 326.9 13.1 319 12.8
2008-12-16 08:36:04 51°19.451 2°49.435 326.9 13.1 320 13
2008-12-16 08:36:09 51°19.464 2°49.416 327.3 13.1 319 13.2
2008-12-16 08:36:14 51°19.479 2°49.397 327.3 13.1 320 13.3
2008-12-16 08:36:19 51°19.492 2°49.378 327.1 13.1 319 13.3
2008-12-16 08:36:24 51°19.506 2°49.359 326.9 13.1 320 13.6
2008-12-16 08:36:29 51°19.52 2°49.34 326.9 13.1 319 13.6
2008-12-16 08:36:34 51°19.534 2°49.321 327 13.1 319 13.4
2008-12-16 08:36:39 51°19.547 2°49.302 327 13.1 319 13.8
2008-12-16 08:36:44 51°19.561 2°49.283 326.9 13.1 319 13.9
2008-12-16 08:36:49 51°19.575 2°49.264 326.8 13.1 319 13.9
2008-12-16 08:36:54 51°19.589 2°49.245 326.9 13.1 319 14.1
2008-12-16 08:36:59 51°19.602 2°49.226 326.9 13.1 319 14.5
2008-12-16 08:37:04 51°19.616 2°49.207 327.1 13.1 319 14.9
2008-12-16 08:37:09 51°19.63 2°49.188 327.1 13.2 319 15.2
2008-12-16 08:37:14 51°19.644 2°49.169 327 13.2 319 15.4
2008-12-16 08:37:19 51°19.658 2°49.15 326.9 13.1 320 15.5
2008-12-16 08:37:24 51°19.671 2°49.131 327 13.1 320 15.9
2008-12-16 08:37:29 51°19.685 2°49.113 327.6 13 320 16
2008-12-16 08:37:34 51°19.699 2°49.094 327.8 13 320 16.2
2008-12-16 08:37:39 51°19.713 2°49.075 327.8 13 319 16.4
2008-12-16 08:37:44 51°19.727 2°49.056 327.3 13 319 16.6
2008-12-16 08:37:49 51°19.74 2°49.038 327.3 13 319 16.7
2008-12-16 08:37:54 51°19.754 2°49.019 327 13 319 17
2008-12-16 08:37:59 51°19.768 2°49.001 327.2 12.9 321 17.2
2008-12-16 08:38:04 51°19.781 2°48.982 328.1 12.9 320 17.4
2008-12-16 08:38:09 51°19.795 2°48.964 328.6 13 320 17.7
2008-12-16 08:38:14 51°19.809 2°48.945 328.6 12.9 319 17.8
2008-12-16 08:38:19 51°19.822 2°48.927 328 12.9 319 18
2008-12-16 08:38:24 51°19.835 2°48.907 327.6 12.9 318 18.2
2008-12-16 08:38:29 51°19.849 2°48.888 327.2 12.8 318 18.5
2008-12-16 08:38:34 51°19.862 2°48.869 327 12.8 317 18.8
2008-12-16 08:38:39 51°19.875 2°48.85 326.8 12.8 317 19
2008-12-16 08:38:44 51°19.888 2°48.831 326.5 12.8 319 19.2
2008-12-16 08:38:49 51°19.902 2°48.813 327.7 12.7 318 19.3
2008-12-16 08:38:54 51°19.914 2°48.794 328.4 12.7 318 19.6
2008-12-16 08:38:59 51°19.928 2°48.775 328.2 12.7 318 19.8
2008-12-16 08:39:04 51°19.941 2°48.756 327.8 12.7 318 20
2008-12-16 08:39:09 51°19.954 2°48.738 327.3 12.7 319 20.1
2008-12-16 08:39:14 51°19.967 2°48.72 328.1 12.6 320 20.4
2008-12-16 08:39:19 51°19.981 2°48.702 328.9 12.6 320 20.6
2008-12-16 08:39:24 51°19.995 2°48.684 329.3 12.7 321 20.6
2008-12-16 08:39:29 51°20.008 2°48.667 329.8 12.6 321 20.6
2008-12-16 08:39:34 51°20.022 2°48.649 330.2 12.6 321 20.6
2008-12-16 08:39:39 51°20.035 2°48.632 330.3 12.6 321 20.7
2008-12-16 08:39:44 51°20.049 2°48.614 330.5 12.6 321 20.9
2008-12-16 08:39:49 51°20.063 2°48.596 330.3 12.6 320 20.9
2008-12-16 08:39:54 51°20.076 2°48.578 329.7 12.6 319 20.8
2008-12-16 08:39:59 51°20.089 2°48.56 328.5 12.6 319 20.9
2008-12-16 08:40:04 51°20.102 2°48.542 328.1 12.7 318 20.9
2008-12-16 08:40:09 51°20.115 2°48.523 327.5 12.6 319 20.9
2008-12-16 08:40:14 51°20.129 2°48.504 327.5 12.7 318 20.9
2008-12-16 08:40:19 51°20.142 2°48.486 326.9 12.6 320 21
2008-12-16 08:40:24 51°20.155 2°48.468 327.7 12.6 319 20.9
2008-12-16 08:40:29 51°20.169 2°48.45 328.4 12.6 321 21
2008-12-16 08:40:34 51°20.182 2°48.432 329 12.6 320 21.1
2008-12-16 08:40:39 51°20.196 2°48.415 329.1 12.6 321 21
2008-12-16 08:40:44 51°20.21 2°48.397 329.8 12.7 321 21.1
2008-12-16 08:40:49 51°20.223 2°48.38 329.9 12.7 321 21
2008-12-16 08:40:54 51°20.237 2°48.362 329.9 12.7 321 21.1
2008-12-16 08:40:59 51°20.251 2°48.344 330 12.7 321 21
2008-12-16 08:41:04 51°20.264 2°48.326 329.5 12.7 318 20.9
2008-12-16 08:41:09 51°20.277 2°48.307 328.3 12.7 320 20.9
2008-12-16 08:41:14 51°20.291 2°48.288 328 12.8 318 20.9
2008-12-16 08:41:19 51°20.304 2°48.27 327.4 12.8 319 20.9
2008-12-16 08:41:24 51°20.317 2°48.25 326.9 12.9 317 20.8
2008-12-16 08:41:29 51°20.33 2°48.231 326.2 13 317 20.8
2008-12-16 08:41:34 51°20.343 2°48.211 325.7 13 317 20.7
2008-12-16 08:41:39 51°20.357 2°48.191 325.5 13 317 20.6
2008-12-16 08:41:44 51°20.37 2°48.172 325.6 13 316 20.5
2008-12-16 08:41:49 51°20.383 2°48.152 325.5 13 316 20.4
2008-12-16 08:41:54 51°20.396 2°48.132 324.9 13 317 20.3
2008-12-16 08:41:59 51°20.409 2°48.112 325.2 13 317 20.2
2008-12-16 08:42:04 51°20.422 2°48.093 325.4 13 318 20.1
2008-12-16 08:42:09 51°20.436 2°48.074 325.7 13 317 20
2008-12-16 08:42:14 51°20.449 2°48.054 325.6 13 317 19.8
2008-12-16 08:42:19 51°20.462 2°48.034 325.4 13 317 19.7
2008-12-16 08:42:24 51°20.475 2°48.015 325.2 13 316 19.7
2008-12-16 08:42:29 51°20.488 2°47.995 325.1 13 317 19.5
2008-12-16 08:42:34 51°20.501 2°47.975 325 13 317 19.4
2008-12-16 08:42:39 51°20.514 2°47.955 325 13 317 19.3
2008-12-16 08:42:44 51°20.528 2°47.935 325.1 13 316 19
2008-12-16 08:42:49 51°20.54 2°47.915 324.2 12.9 316 19.1
2008-12-16 08:42:54 51°20.554 2°47.897 323.6 12.8 319 18.9
2008-12-16 08:42:59 51°20.568 2°47.879 325.6 12.8 321 18.8
2008-12-16 08:43:04 51°20.581 2°47.861 328.5 12.8 322 18.8
2008-12-16 08:43:09 51°20.596 2°47.845 330.5 12.7 324 18.6
2008-12-16 08:43:14 51°20.61 2°47.829 332.1 12.7 325 18.4
2008-12-16 08:43:19 51°20.625 2°47.814 333.4 12.7 327 18.3
2008-12-16 08:43:24 51°20.64 2°47.8 335.2 12.6 331 18
2008-12-16 08:43:29 51°20.656 2°47.787 338.7 12.5 332 17.8
2008-12-16 08:43:34 51°20.671 2°47.774 340.7 12.5 334 17.5
2008-12-16 08:43:39 51°20.687 2°47.763 342.6 12.5 336 17.2
2008-12-16 08:43:44 51°20.703 2°47.752 343.9 12.5 337 17.2
2008-12-16 08:43:49 51°20.719 2°47.742 345.6 12.5 338 17.3
2008-12-16 08:43:54 51°20.735 2°47.732 346.6 12.5 338 17.4
2008-12-16 08:43:59 51°20.751 2°47.722 347.4 12.5 339 17.4
2008-12-16 08:44:04 51°20.768 2°47.712 348.1 12.5 340 17.3
2008-12-16 08:44:09 51°20.784 2°47.704 348.8 12.5 340 17.6
2008-12-16 08:44:14 51°20.801 2°47.694 349.3 12.5 341 17.6
2008-12-16 08:44:19 51°20.817 2°47.686 349.7 12.5 341 17.4
2008-12-16 08:44:24 51°20.833 2°47.676 350 12.5 341 17.5
2008-12-16 08:44:29 51°20.85 2°47.668 350.1 12.5 341 17.8
2008-12-16 08:44:34 51°20.866 2°47.658 350.1 12.5 340 17.8
2008-12-16 08:44:39 51°20.883 2°47.649 349.7 12.6 341 17.5
2008-12-16 08:44:44 51°20.899 2°47.64 349.7 12.6 342 16.6
2008-12-16 08:44:49 51°20.916 2°47.632 350.6 12.6 342 16.3
2008-12-16 08:44:54 51°20.932 2°47.623 351 12.6 342 16.3
2008-12-16 08:44:59 51°20.949 2°47.615 351.3 12.5 343 16.6
2008-12-16 08:45:04 51°20.966 2°47.607 351.8 12.6 343 17.3
2008-12-16 08:45:09 51°20.982 2°47.598 352 12.6 342 17.8
2008-12-16 08:45:14 51°20.999 2°47.59 351.8 12.6 343 18.2
2008-12-16 08:45:19 51°21.016 2°47.582 351.8 12.6 343 18.6
2008-12-16 08:45:24 51°21.032 2°47.574 352.2 12.6 342 19
2008-12-16 08:45:29 51°21.049 2°47.565 351.7 12.7 342 19.6
2008-12-16 08:45:34 51°21.066 2°47.556 351.5 12.7 342 20
2008-12-16 08:45:39 51°21.083 2°47.548 351.2 12.7 342 20
2008-12-16 08:45:44 51°21.099 2°47.539 351.2 12.7 341 20.3
2008-12-16 08:45:49 51°21.116 2°47.531 350.8 12.7 342 20.3
2008-12-16 08:45:54 51°21.133 2°47.522 351.1 12.7 342 20.1
2008-12-16 08:45:59 51°21.15 2°47.513 351.1 12.7 342 20
2008-12-16 08:46:04 51°21.166 2°47.505 350.9 12.6 342 20.1
2008-12-16 08:46:09 51°21.183 2°47.496 350.9 12.7 341 19.9
2008-12-16 08:46:14 51°21.2 2°47.486 350.2 12.7 340 20.2
2008-12-16 08:46:19 51°21.216 2°47.477 349.3 12.7 341 20.6
2008-12-16 08:46:24 51°21.233 2°47.468 349.5 12.8 341 20.8
2008-12-16 08:46:29 51°21.25 2°47.459 349.6 12.7 341 21
2008-12-16 08:46:34 51°21.267 2°47.45 349.8 12.7 341 21.2
2008-12-16 08:46:39 51°21.283 2°47.44 350.1 12.8 340 21.3
2008-12-16 08:46:44 51°21.3 2°47.43 349.3 12.8 340 21
2008-12-16 08:46:49 51°21.317 2°47.42 348.4 12.8 340 21
2008-12-16 08:46:54 51°21.333 2°47.412 348.2 12.7 341 20.9
2008-12-16 08:46:59 51°21.35 2°47.402 348.8 12.8 341 21.5
2008-12-16 08:47:04 51°21.367 2°47.393 349.4 12.7 342 21.5
2008-12-16 08:47:09 51°21.383 2°47.384 349.8 12.8 341 21.9
2008-12-16 08:47:14 51°21.4 2°47.375 349.5 12.8 342 21.8
2008-12-16 08:47:19 51°21.417 2°47.366 349.4 12.7 342 22
2008-12-16 08:47:24 51°21.434 2°47.357 350 12.7 342 22.4
2008-12-16 08:47:29 51°21.45 2°47.348 350.1 12.8 341 22.3
2008-12-16 08:47:34 51°21.467 2°47.339 349.5 12.7 341 22.4
2008-12-16 08:47:39 51°21.484 2°47.33 349.4 12.7 342 22.8
2008-12-16 08:47:44 51°21.501 2°47.321 349.7 12.7 342 22.7
2008-12-16 08:47:49 51°21.518 2°47.313 350 12.7 342 22.6
2008-12-16 08:47:54 51°21.534 2°47.303 350.1 12.7 340 22.7
2008-12-16 08:47:59 51°21.551 2°47.293 348.8 12.7 339 22.8
2008-12-16 08:48:04 51°21.567 2°47.284 347.9 12.8 339 23.1
2008-12-16 08:48:09 51°21.584 2°47.273 347.7 12.8 339 23.2
2008-12-16 08:48:14 51°21.6 2°47.263 346.8 12.7 339 23.4
2008-12-16 08:48:19 51°21.617 2°47.253 346.5 12.7 338 23.3
2008-12-16 08:48:24 51°21.633 2°47.243 346 12.6 339 23.4
2008-12-16 08:48:29 51°21.649 2°47.232 346 12.7 338 23.5
2008-12-16 08:48:34 51°21.666 2°47.222 345.8 12.6 339 23.1
2008-12-16 08:48:39 51°21.682 2°47.212 345.9 12.6 339 23
2008-12-16 08:48:44 51°21.699 2°47.202 346.3 12.6 339 23.5
2008-12-16 08:48:49 51°21.715 2°47.192 346.2 12.6 339 23
2008-12-16 08:48:54 51°21.731 2°47.182 346.5 12.5 339 22.8
2008-12-16 08:48:59 51°21.747 2°47.172 346.7 12.4 339 23.1
2008-12-16 08:49:04 51°21.763 2°47.162 346.5 12.5 338 22.8
2008-12-16 08:49:09 51°21.779 2°47.152 346.4 12.4 339 22.7
2008-12-16 08:49:14 51°21.795 2°47.142 346.4 12.4 339 22.8
2008-12-16 08:49:19 51°21.811 2°47.132 346.7 12.4 339 22.7
2008-12-16 08:49:24 51°21.827 2°47.122 346.9 12.4 339 22.7
2008-12-16 08:49:29 51°21.843 2°47.112 346.9 12.4 339 22.7
2008-12-16 08:49:34 51°21.859 2°47.103 347.1 12.4 339 22.7
2008-12-16 08:49:39 51°21.875 2°47.093 347.4 12.4 339 22.8
2008-12-16 08:49:44 51°21.891 2°47.083 347.3 12.4 338 22.8
2008-12-16 08:49:49 51°21.907 2°47.073 346.9 12.4 339 22.5
2008-12-16 08:49:54 51°21.923 2°47.063 346.6 12.4 339 22.8
2008-12-16 08:49:59 51°21.939 2°47.053 346.9 12.4 340 22.4
2008-12-16 08:50:04 51°21.955 2°47.043 347.3 12.4 339 22.2
2008-12-16 08:50:09 51°21.972 2°47.034 347.2 12.4 340 22.7
2008-12-16 08:50:14 51°21.988 2°47.025 347.5 12.4 341 22.4
2008-12-16 08:50:19 51°22.004 2°47.016 348.3 12.4 341 22.3
2008-12-16 08:50:24 51°22.02 2°47.007 349.4 12.4 341 21.9
2008-12-16 08:50:29 51°22.037 2°46.998 349.6 12.3 341 21.7
2008-12-16 08:50:34 51°22.053 2°46.989 349.4 12.3 341 21.8
2008-12-16 08:50:39 51°22.069 2°46.981 349.9 12.4 341 21.7
2008-12-16 08:50:44 51°22.085 2°46.971 349.8 12.3 340 21.3
2008-12-16 08:50:49 51°22.101 2°46.962 348.9 12.3 340 21
2008-12-16 08:50:54 51°22.117 2°46.952 348.6 12.3 339 20.7
2008-12-16 08:50:59 51°22.133 2°46.943 348.1 12.3 340 20.7
2008-12-16 08:51:04 51°22.149 2°46.934 348.2 12.4 340 20.4
2008-12-16 08:51:09 51°22.165 2°46.924 348.6 12.3 339 20.2
2008-12-16 08:51:14 51°22.181 2°46.914 348 12.3 340 19.5
2008-12-16 08:51:19 51°22.197 2°46.905 347.9 12.3 339 19.8
2008-12-16 08:51:24 51°22.213 2°46.895 347.9 12.3 339 19.2
2008-12-16 08:51:29 51°22.229 2°46.885 347.7 12.3 339 18.9
2008-12-16 08:51:34 51°22.245 2°46.876 347.5 12.2 340 18.7
2008-12-16 08:51:39 51°22.261 2°46.868 348.1 12.2 341 17.5
2008-12-16 08:51:44 51°22.277 2°46.859 349.3 12.2 342 16.2
2008-12-16 08:51:49 51°22.293 2°46.851 349.9 12.2 342 15
2008-12-16 08:51:54 51°22.309 2°46.842 350.2 12.2 341 13.6
2008-12-16 08:51:59 51°22.325 2°46.833 350.4 12.1 341 12.6
2008-12-16 08:52:04 51°22.341 2°46.824 350.4 12.1 341 11.9
2008-12-16 08:52:09 51°22.357 2°46.816 350.4 12.1 342 13.6
2008-12-16 08:52:14 51°22.373 2°46.808 350.7 12.1 342 14.5
2008-12-16 08:52:19 51°22.389 2°46.8 351.1 12.1 343 15.3
2008-12-16 08:52:24 51°22.405 2°46.792 351.4 12.1 343 15.8
2008-12-16 08:52:29 51°22.421 2°46.784 351.6 12.2 342 16.1
2008-12-16 08:52:34 51°22.437 2°46.776 351.5 12.2 342 16
2008-12-16 08:52:39 51°22.453 2°46.767 350.9 12.1 341 16.1
2008-12-16 08:52:44 51°22.469 2°46.758 350.8 12.3 340 16.1
2008-12-16 08:52:49 51°22.485 2°46.748 349.6 12.3 338 16
2008-12-16 08:52:54 51°22.501 2°46.738 348 12.3 339 15.6
2008-12-16 08:52:59 51°22.516 2°46.727 347.1 12.3 337 15.7
2008-12-16 08:53:04 51°22.532 2°46.717 346.2 12.4 337 15.7
2008-12-16 08:53:09 51°22.548 2°46.705 345.4 12.3 335 15.6
2008-12-16 08:53:14 51°22.563 2°46.693 344.6 12.4 333 15.6
2008-12-16 08:53:19 51°22.578 2°46.678 342.2 12.4 330 14.9
2008-12-16 08:53:24 51°22.593 2°46.664 339.5 12.5 327 13.5
2008-12-16 08:53:29 51°22.607 2°46.648 337.9 12.5 325 13.8
2008-12-16 08:53:34 51°22.62 2°46.631 335.1 12.6 321 14.5
2008-12-16 08:53:39 51°22.634 2°46.613 331 12.7 320 15.6
2008-12-16 08:53:44 51°22.647 2°46.593 328.4 12.7 316 16.7
2008-12-16 08:53:49 51°22.659 2°46.574 325.9 12.8 315 17.7
2008-12-16 08:53:54 51°22.671 2°46.552 323.2 12.8 311 18.5
2008-12-16 08:53:59 51°22.683 2°46.531 320.3 12.8 311 19.3
2008-12-16 08:54:04 51°22.694 2°46.508 318.4 12.9 308 19.5
2008-12-16 08:54:09 51°22.705 2°46.485 316.2 13 308 19.7
2008-12-16 08:54:14 51°22.715 2°46.462 315.1 13 306 19.9
2008-12-16 08:54:19 51°22.726 2°46.439 313.5 13 307 19.4
2008-12-16 08:54:24 51°22.736 2°46.415 312.8 13 305 19.3
2008-12-16 08:54:29 51°22.746 2°46.392 312.1 13 305 20.1
2008-12-16 08:54:34 51°22.756 2°46.368 311.6 13 304 20.9
2008-12-16 08:54:39 51°22.767 2°46.344 310.9 13 305 21.2
2008-12-16 08:54:44 51°22.777 2°46.321 310.8 13 304 21.4
2008-12-16 08:54:49 51°22.787 2°46.297 310.7 13.1 305 21.7
2008-12-16 08:54:54 51°22.797 2°46.273 310.5 13.1 305 21.9
2008-12-16 08:54:59 51°22.808 2°46.25 310.9 13 305 22.3
2008-12-16 08:55:04 51°22.818 2°46.226 311 13.1 305 22.6
2008-12-16 08:55:09 51°22.828 2°46.202 310.9 13.1 304 22.7
2008-12-16 08:55:14 51°22.839 2°46.179 310.8 13.1 305 22.8
2008-12-16 08:55:19 51°22.849 2°46.155 310.8 13.1 305 20.7
2008-12-16 08:55:24 51°22.859 2°46.132 311.2 13 305 20.8
2008-12-16 08:55:29 51°22.87 2°46.108 311.2 13.1 305 21.3
2008-12-16 08:55:34 51°22.88 2°46.085 311.3 13 305 21.8
2008-12-16 08:55:39 51°22.891 2°46.061 311.4 13.1 306 22.4
2008-12-16 08:55:44 51°22.901 2°46.038 311.5 13 306 22.7
2008-12-16 08:55:49 51°22.912 2°46.014 311.6 13 306 23.4
2008-12-16 08:55:54 51°22.923 2°45.991 312 13.1 306 23.6
2008-12-16 08:55:59 51°22.933 2°45.967 311.8 13.1 306 23.9
2008-12-16 08:56:04 51°22.944 2°45.944 311.8 13.1 306 23.9
2008-12-16 08:56:09 51°22.955 2°45.921 311.6 13.1 306 24.1
2008-12-16 08:56:14 51°22.965 2°45.897 311.6 13.1 306 24.4
2008-12-16 08:56:19 51°22.976 2°45.874 311.6 13.1 306 24.5
2008-12-16 08:56:24 51°22.987 2°45.851 311.6 13 307 24.6
2008-12-16 08:56:29 51°22.997 2°45.827 312.2 13 306 24.6
2008-12-16 08:56:34 51°23.008 2°45.804 312 13 305 24.5
2008-12-16 08:56:39 51°23.018 2°45.78 310.9 13 305 24.3
2008-12-16 08:56:44 51°23.028 2°45.756 310.4 13 304 24.3
2008-12-16 08:56:49 51°23.039 2°45.733 309.8 13 307 24.6
2008-12-16 08:56:54 51°23.049 2°45.709 310.9 13 306 24.9
2008-12-16 08:56:59 51°23.06 2°45.686 311.3 13 307 24.8
2008-12-16 08:57:04 51°23.071 2°45.663 312 13 306 24.8
2008-12-16 08:57:09 51°23.082 2°45.64 312.1 13 306 24.7
2008-12-16 08:57:14 51°23.092 2°45.616 311.8 13 306 24.4
2008-12-16 08:57:19 51°23.103 2°45.593 311.6 13 306 24.5
2008-12-16 08:57:24 51°23.113 2°45.569 311.6 13 304 24.6
2008-12-16 08:57:29 51°23.123 2°45.546 310.9 13 305 24.9
2008-12-16 08:57:34 51°23.134 2°45.522 310.4 13 305 25.4
2008-12-16 08:57:39 51°23.144 2°45.499 310.5 13 306 26
2008-12-16 08:57:44 51°23.155 2°45.475 311.2 13 305 26.2
2008-12-16 08:57:49 51°23.166 2°45.452 311.4 13 306 26.3
2008-12-16 08:57:54 51°23.176 2°45.429 311.2 13 307 26.2
2008-12-16 08:57:59 51°23.187 2°45.405 311.6 13 307 26
2008-12-16 08:58:04 51°23.198 2°45.382 311.9 13 307 26
2008-12-16 08:58:09 51°23.209 2°45.359 312.2 13.1 307 25.9
2008-12-16 08:58:14 51°23.22 2°45.336 312 13.1 306 25.6
2008-12-16 08:58:19 51°23.23 2°45.313 311.8 13 307 26
2008-12-16 08:58:24 51°23.241 2°45.29 312.2 13 307 26
2008-12-16 08:58:29 51°23.252 2°45.267 312.6 13 307 24.6
2008-12-16 08:58:34 51°23.263 2°45.243 312.5 13 307 25.2
2008-12-16 08:58:39 51°23.274 2°45.22 312.4 13 307 26.1
2008-12-16 08:58:44 51°23.284 2°45.197 312.3 12.9 307 26
2008-12-16 08:58:49 51°23.295 2°45.174 312.2 12.9 306 25.7
2008-12-16 08:58:54 51°23.305 2°45.151 311.6 13 306 24.3
2008-12-16 08:58:59 51°23.316 2°45.128 311.7 13 306 25
2008-12-16 08:59:04 51°23.327 2°45.105 311.8 12.9 306 25.7
2008-12-16 08:59:09 51°23.337 2°45.082 311.8 12.9 306 25.6
2008-12-16 08:59:14 51°23.348 2°45.059 312.1 12.9 306 26
2008-12-16 08:59:19 51°23.358 2°45.036 312.1 12.9 306 25.7
2008-12-16 08:59:24 51°23.368 2°45.012 311.5 12.9 305 25.2
2008-12-16 08:59:29 51°23.379 2°44.989 310.6 12.8 305 25.3
2008-12-16 08:59:34 51°23.389 2°44.965 310.2 12.9 304 25.2
2008-12-16 08:59:39 51°23.399 2°44.941 309.5 12.9 304 24.4
2008-12-16 08:59:44 51°23.409 2°44.917 309.2 12.9 304 25.7
2008-12-16 08:59:49 51°23.418 2°44.893 308.9 12.9 304 25.5
2008-12-16 08:59:54 51°23.428 2°44.869 308.9 13 303 24.6
2008-12-16 08:59:59 51°23.438 2°44.845 308.8 12.9 303 25.1
2008-12-16 09:00:04 51°23.448 2°44.821 308.7 12.9 305 25.7
2008-12-16 09:00:09 51°23.458 2°44.798 310.1 12.9 305 25.8
2008-12-16 09:00:14 51°23.468 2°44.775 311 12.9 305 25.3
2008-12-16 09:00:19 51°23.478 2°44.751 310.9 12.8 304 24.3
2008-12-16 09:00:24 51°23.489 2°44.728 310.6 12.9 304 24.6
2008-12-16 09:00:29 51°23.499 2°44.704 310.2 12.9 304 25.4
2008-12-16 09:00:34 51°23.509 2°44.68 310 12.9 305 26.1
2008-12-16 09:00:39 51°23.519 2°44.657 310.3 12.8 306 26
2008-12-16 09:00:44 51°23.53 2°44.634 311.4 12.8 305 25.8
2008-12-16 09:00:49 51°23.54 2°44.611 311.9 12.9 305 25.7
2008-12-16 09:00:54 51°23.55 2°44.587 312.3 12.9 305 24.6
2008-12-16 09:00:59 51°23.561 2°44.564 312.4 12.9 306 24
2008-12-16 09:01:04 51°23.571 2°44.541 312.5 12.9 306 24.6
2008-12-16 09:01:09 51°23.582 2°44.518 312.9 12.8 306 25.9
2008-12-16 09:01:14 51°23.592 2°44.495 313.5 12.9 305 25.8
2008-12-16 09:01:19 51°23.603 2°44.472 313.4 12.9 306 25.9
2008-12-16 09:01:24 51°23.613 2°44.448 313.3 13 305 25.1
2008-12-16 09:01:29 51°23.624 2°44.425 313.5 12.9 305 22.6
2008-12-16 09:01:34 51°23.634 2°44.401 313.2 13 305 23.3
2008-12-16 09:01:39 51°23.644 2°44.378 313 12.9 306 23.8
2008-12-16 09:01:44 51°23.655 2°44.355 313.3 13 306 24.8
2008-12-16 09:01:49 51°23.665 2°44.331 313.4 12.9 304 24.7
2008-12-16 09:01:54 51°23.675 2°44.307 312.4 12.9 304 25.4
2008-12-16 09:01:59 51°23.685 2°44.283 311.8 12.9 303 25.4
2008-12-16 09:02:04 51°23.695 2°44.259 310.8 12.9 303 25.2
2008-12-16 09:02:09 51°23.705 2°44.235 310.4 12.9 304 25.5
2008-12-16 09:02:14 51°23.714 2°44.211 310.5 13 303 25.3
2008-12-16 09:02:19 51°23.724 2°44.187 310.5 12.9 302 25.4
2008-12-16 09:02:24 51°23.734 2°44.163 310.2 13 303 25.6
2008-12-16 09:02:29 51°23.743 2°44.139 309.8 12.9 303 25.4
2008-12-16 09:02:34 51°23.753 2°44.114 309.9 13 303 25.5
2008-12-16 09:02:39 51°23.763 2°44.09 310.5 13 303 25.3
2008-12-16 09:02:44 51°23.772 2°44.066 310.3 13 302 25.3
2008-12-16 09:02:49 51°23.782 2°44.042 310 13 304 25
2008-12-16 09:02:54 51°23.793 2°44.018 310.5 13 305 25.3
2008-12-16 09:02:59 51°23.803 2°43.994 311.7 13 305 25.1
2008-12-16 09:03:04 51°23.814 2°43.972 312.7 13 306 25.3
2008-12-16 09:03:09 51°23.824 2°43.948 313.3 12.9 306 25.1
2008-12-16 09:03:14 51°23.835 2°43.926 313.8 12.7 308 25.3
2008-12-16 09:03:19 51°23.845 2°43.903 314.3 12.7 306 25.1
2008-12-16 09:03:24 51°23.856 2°43.881 313.8 12.6 307 24.6
2008-12-16 09:03:29 51°23.866 2°43.858 313.8 12.7 306 23.2
2008-12-16 09:03:34 51°23.876 2°43.835 313.8 12.8 306 21.6
2008-12-16 09:03:39 51°23.886 2°43.812 313.6 12.8 305 20.5
2008-12-16 09:03:44 51°23.897 2°43.789 313.1 12.8 306 22
2008-12-16 09:03:49 51°23.907 2°43.766 313.3 12.8 306 23.2
2008-12-16 09:03:54 51°23.918 2°43.742 313.7 12.8 305 24
2008-12-16 09:03:59 51°23.928 2°43.719 313.2 12.8 306 24.5
2008-12-16 09:04:04 51°23.938 2°43.696 313.2 12.9 306 24.2
2008-12-16 09:04:09 51°23.949 2°43.673 313.3 12.8 305 24.7
2008-12-16 09:04:14 51°23.959 2°43.65 313.3 12.8 305 24.7
2008-12-16 09:04:19 51°23.969 2°43.626 313.1 12.9 305 24.9
2008-12-16 09:04:24 51°23.98 2°43.603 312.8 12.9 305 23.3
2008-12-16 09:04:29 51°23.99 2°43.579 312.9 12.9 305 20.7
2008-12-16 09:04:34 51°24 2°43.556 313.1 12.9 305 22.2
2008-12-16 09:04:39 51°24.01 2°43.532 312.9 12.9 305 23.3
2008-12-16 09:04:44 51°24.021 2°43.509 312.6 12.9 306 23.9
2008-12-16 09:04:49 51°24.032 2°43.486 313.3 12.9 305 24.7
2008-12-16 09:04:54 51°24.042 2°43.463 313.2 12.9 306 24.8
2008-12-16 09:04:59 51°24.053 2°43.44 313.2 12.9 306 25.2
2008-12-16 09:05:04 51°24.064 2°43.417 313.6 12.8 307 25.7
2008-12-16 09:05:09 51°24.074 2°43.394 314.2 12.8 307 25.9
2008-12-16 09:05:14 51°24.085 2°43.372 314.2 12.8 307 26.2
2008-12-16 09:05:19 51°24.096 2°43.35 314.5 12.8 309 25.8
2008-12-16 09:05:24 51°24.107 2°43.327 315.3 12.8 309 25.1
2008-12-16 09:05:29 51°24.119 2°43.305 316 12.8 310 25.1
2008-12-16 09:05:34 51°24.13 2°43.283 316.7 12.9 309 25.1
2008-12-16 09:05:39 51°24.142 2°43.262 317 12.8 310 25
2008-12-16 09:05:44 51°24.153 2°43.24 317.4 12.8 310 24.6
2008-12-16 09:05:49 51°24.165 2°43.219 317.8 12.7 311 24.9
2008-12-16 09:05:54 51°24.176 2°43.197 318.2 12.8 310 24.1
2008-12-16 09:05:59 51°24.188 2°43.176 318.2 12.8 312 23.9
2008-12-16 09:06:04 51°24.199 2°43.154 318.2 12.8 311 23
2008-12-16 09:06:09 51°24.211 2°43.134 319 12.7 312 20.7
2008-12-16 09:06:14 51°24.223 2°43.112 319.6 12.7 311 19.1
2008-12-16 09:06:19 51°24.235 2°43.091 320.1 12.7 312 17.7
2008-12-16 09:06:24 51°24.246 2°43.07 320.2 12.8 311 15.9
2008-12-16 09:06:29 51°24.258 2°43.049 320.4 12.8 312 14.8
2008-12-16 09:06:34 51°24.27 2°43.027 320.5 12.8 312 17.5
2008-12-16 09:06:39 51°24.282 2°43.007 320.6 12.7 313 18.7
2008-12-16 09:06:44 51°24.294 2°42.986 320.7 12.7 314 19.7
2008-12-16 09:06:49 51°24.306 2°42.966 321.7 12.7 314 20.8
2008-12-16 09:06:54 51°24.318 2°42.945 321.7 12.8 313 20.3
2008-12-16 09:06:59 51°24.33 2°42.924 321.6 12.7 313 21.1
2008-12-16 09:07:04 51°24.342 2°42.904 321 12.7 313 21.1
2008-12-16 09:07:09 51°24.354 2°42.883 321 12.7 313 21.3
2008-12-16 09:07:14 51°24.366 2°42.863 320.9 12.7 313 21
2008-12-16 09:07:19 51°24.378 2°42.842 320.8 12.7 313 21.3
2008-12-16 09:07:24 51°24.39 2°42.822 320.8 12.7 313 21.4
2008-12-16 09:07:29 51°24.402 2°42.801 320.4 12.7 313 21.5
2008-12-16 09:07:34 51°24.414 2°42.781 320.3 12.7 313 21.3
2008-12-16 09:07:39 51°24.426 2°42.76 320.6 12.7 313 21.3
2008-12-16 09:07:44 51°24.438 2°42.739 320.6 12.6 312 20.6
2008-12-16 09:07:49 51°24.45 2°42.719 320 12.7 311 20.3
2008-12-16 09:07:54 51°24.461 2°42.697 320 12.7 310 18.9
2008-12-16 09:07:59 51°24.472 2°42.675 318.8 12.7 309 17.8
2008-12-16 09:08:04 51°24.483 2°42.653 317.8 12.6 308 16.3
2008-12-16 09:08:09 51°24.494 2°42.631 317.2 12.6 308 15.8
2008-12-16 09:08:14 51°24.504 2°42.609 316.7 12.6 307 16.8
2008-12-16 09:08:19 51°24.515 2°42.587 316.2 12.6 308 18.2
2008-12-16 09:08:24 51°24.526 2°42.566 316.5 12.5 310 19.3
2008-12-16 09:08:29 51°24.537 2°42.544 317.3 12.5 309 20.6
2008-12-16 09:08:34 51°24.548 2°42.523 317.3 12.5 310 21.6
2008-12-16 09:08:39 51°24.559 2°42.501 317.6 12.5 310 22.5
2008-12-16 09:08:44 51°24.57 2°42.48 317.7 12.6 310 22.9
2008-12-16 09:08:49 51°24.582 2°42.459 317.7 12.5 310 22.8
2008-12-16 09:08:54 51°24.593 2°42.438 317.8 12.5 310 22.5
2008-12-16 09:08:59 51°24.604 2°42.416 318 12.5 310 22.7
2008-12-16 09:09:04 51°24.615 2°42.395 317.2 12.5 311 22.5
2008-12-16 09:09:09 51°24.626 2°42.374 317.5 12.5 310 22.6
2008-12-16 09:09:14 51°24.637 2°42.352 317.9 12.6 309 22.7
2008-12-16 09:09:19 51°24.648 2°42.331 316.9 12.5 309 23.1
2008-12-16 09:09:24 51°24.659 2°42.309 316.6 12.5 309 23.1
2008-12-16 09:09:29 51°24.67 2°42.288 316.3 12.5 309 24
2008-12-16 09:09:34 51°24.682 2°42.267 315.8 12.4 313 24.4
2008-12-16 09:09:39 51°24.694 2°42.248 319.2 12.4 314 24.7
2008-12-16 09:09:44 51°24.706 2°42.229 321.5 12.3 317 24.9
2008-12-16 09:09:49 51°24.719 2°42.21 323.6 12.4 317 25.3
2008-12-16 09:09:54 51°24.732 2°42.192 324.7 12.3 319 25.1
2008-12-16 09:09:59 51°24.745 2°42.175 326.1 12.3 320 24.8
2008-12-16 09:10:04 51°24.758 2°42.157 327.2 12.3 321 24.5
2008-12-16 09:10:09 51°24.771 2°42.14 328.2 12.3 321 23.1
2008-12-16 09:10:14 51°24.785 2°42.123 328.7 12.3 321 22
2008-12-16 09:10:19 51°24.798 2°42.106 329.3 12.3 322 21.1
2008-12-16 09:10:24 51°24.811 2°42.089 329.8 12.2 321 20.5
2008-12-16 09:10:29 51°24.824 2°42.071 329.8 12.4 317 20.9
2008-12-16 09:10:34 51°24.836 2°42.052 327.9 12.4 316 22
2008-12-16 09:10:39 51°24.849 2°42.034 326 12.3 318 21.8
2008-12-16 09:10:44 51°24.861 2°42.014 325.4 12.4 315 22.3
2008-12-16 09:10:49 51°24.873 2°41.995 324.1 12.4 315 21.7
2008-12-16 09:10:54 51°24.885 2°41.975 323.4 12.3 314 19.3
2008-12-16 09:10:59 51°24.897 2°41.955 322.5 12.4 312 21.9
2008-12-16 09:11:04 51°24.908 2°41.934 320.7 12.4 313 23.1
2008-12-16 09:11:09 51°24.919 2°41.913 319.6 12.5 309 23.1
2008-12-16 09:11:14 51°24.93 2°41.892 318.2 12.5 310 23.3
2008-12-16 09:11:19 51°24.941 2°41.87 317.5 12.5 308 23.6
2008-12-16 09:11:24 51°24.952 2°41.848 316.4 12.5 309 23
2008-12-16 09:11:29 51°24.962 2°41.826 315.8 12.5 307 23
2008-12-16 09:11:34 51°24.973 2°41.804 314.9 12.5 308 23.3
2008-12-16 09:11:39 51°24.983 2°41.781 314.8 12.6 305 23.1
2008-12-16 09:11:44 51°24.994 2°41.759 313.8 12.5 307 23.6
2008-12-16 09:11:49 51°25.004 2°41.736 314.1 12.6 306 24.3
2008-12-16 09:11:54 51°25.014 2°41.714 313.6 12.5 306 24.7
2008-12-16 09:11:59 51°25.025 2°41.691 313.4 12.6 306 24.7
2008-12-16 09:12:04 51°25.035 2°41.669 313.7 12.6 307 24.4
2008-12-16 09:12:09 51°25.045 2°41.646 314.2 12.6 306 24.5
2008-12-16 09:12:14 51°25.056 2°41.624 314 12.6 306 24
2008-12-16 09:12:19 51°25.066 2°41.601 313.8 12.6 306 23.5
2008-12-16 09:12:24 51°25.077 2°41.579 313.7 12.6 307 23.3
2008-12-16 09:12:29 51°25.087 2°41.557 313.8 12.6 306 23
2008-12-16 09:12:34 51°25.097 2°41.534 314.2 12.6 306 22.3
2008-12-16 09:12:39 51°25.107 2°41.511 313.9 12.6 306 21.7
2008-12-16 09:12:44 51°25.117 2°41.489 313.6 12.5 306 23.7
2008-12-16 09:12:49 51°25.128 2°41.466 313.6 12.5 306 24.1
2008-12-16 09:12:54 51°25.138 2°41.444 313.8 12.5 305 24.4
2008-12-16 09:12:59 51°25.148 2°41.421 313.6 12.6 305 23.8
2008-12-16 09:13:04 51°25.157 2°41.397 312.3 12.6 304 24.1
2008-12-16 09:13:09 51°25.167 2°41.374 311.2 12.6 302 24.6
2008-12-16 09:13:14 51°25.176 2°41.351 310.4 12.6 303 24.6
2008-12-16 09:13:19 51°25.186 2°41.327 310.4 12.6 303 23.5
2008-12-16 09:13:24 51°25.196 2°41.304 310.7 12.6 303 22.8
2008-12-16 09:13:29 51°25.205 2°41.28 310.4 12.6 303 24.8
2008-12-16 09:13:34 51°25.215 2°41.256 310.2 12.7 304 25
2008-12-16 09:13:39 51°25.224 2°41.233 310.7 12.7 303 25.2
2008-12-16 09:13:44 51°25.234 2°41.21 310.4 12.7 303 25.2
2008-12-16 09:13:49 51°25.244 2°41.186 310.4 12.6 304 25.7
2008-12-16 09:13:54 51°25.253 2°41.163 310.9 12.7 303 25.8
2008-12-16 09:13:59 51°25.263 2°41.139 310.9 12.6 303 25.8
2008-12-16 09:14:04 51°25.273 2°41.116 310.7 12.6 303 25.2
2008-12-16 09:14:09 51°25.282 2°41.093 310.5 12.6 303 24.4
2008-12-16 09:14:14 51°25.292 2°41.069 310.4 12.6 302 23.3
2008-12-16 09:14:19 51°25.301 2°41.046 310.2 12.6 303 24.5
2008-12-16 09:14:24 51°25.311 2°41.022 310.6 12.6 303 23.9
2008-12-16 09:14:29 51°25.32 2°40.998 310.7 12.6 302 24
2008-12-16 09:14:34 51°25.329 2°40.974 310.2 12.6 301 25
2008-12-16 09:14:39 51°25.338 2°40.95 309.3 12.6 301 24.1
2008-12-16 09:14:44 51°25.347 2°40.926 308.5 12.7 300 23.7
2008-12-16 09:14:49 51°25.356 2°40.902 307.5 12.7 301 23.9
2008-12-16 09:14:54 51°25.365 2°40.878 307.8 12.7 300 23.1
2008-12-16 09:14:59 51°25.374 2°40.853 307.8 12.8 301 24
2008-12-16 09:15:04 51°25.383 2°40.829 307.9 12.8 301 25
2008-12-16 09:15:09 51°25.392 2°40.805 308 12.8 300 25.6
2008-12-16 09:15:14 51°25.401 2°40.78 307.7 12.8 301 25.9
2008-12-16 09:15:19 51°25.41 2°40.755 307.5 12.9 301 26.3
2008-12-16 09:15:24 51°25.419 2°40.731 307.4 12.9 301 26.1
2008-12-16 09:15:29 51°25.428 2°40.706 307.6 12.9 301 25.5
2008-12-16 09:15:34 51°25.438 2°40.682 308.1 12.9 302 24
2008-12-16 09:15:39 51°25.447 2°40.658 309.2 12.9 302 23.8
2008-12-16 09:15:44 51°25.457 2°40.634 309.7 12.9 302 24.9
2008-12-16 09:15:49 51°25.466 2°40.609 309.7 12.9 302 25.2
2008-12-16 09:15:54 51°25.476 2°40.585 309.5 12.9 302 25.6
2008-12-16 09:15:59 51°25.486 2°40.561 309.8 12.9 303 24.5
2008-12-16 09:16:04 51°25.495 2°40.537 310.5 12.9 303 23.6
2008-12-16 09:16:09 51°25.505 2°40.514 310.5 12.8 304 25.3
2008-12-16 09:16:14 51°25.515 2°40.49 311.2 12.8 305 25.2
2008-12-16 09:16:19 51°25.526 2°40.467 312.4 12.8 306 25.1
2008-12-16 09:16:24 51°25.536 2°40.444 313.2 12.8 306 26
2008-12-16 09:16:29 51°25.547 2°40.422 313.4 12.7 307 27
2008-12-16 09:16:34 51°25.557 2°40.399 314.2 12.7 306 27.4
2008-12-16 09:16:39 51°25.568 2°40.376 314 12.8 307 27.5
2008-12-16 09:16:44 51°25.579 2°40.353 314.3 12.9 307 27.6
2008-12-16 09:16:49 51°25.589 2°40.331 314.5 12.7 307 27.7
2008-12-16 09:16:54 51°25.6 2°40.308 314.4 12.8 305 27.6
2008-12-16 09:16:59 51°25.61 2°40.285 313.2 12.8 306 27.9
2008-12-16 09:17:04 51°25.621 2°40.262 313.1 12.8 306 27.7
2008-12-16 09:17:09 51°25.631 2°40.239 313.3 12.7 307 27.8
2008-12-16 09:17:14 51°25.642 2°40.216 313.9 12.8 307 28.1
2008-12-16 09:17:19 51°25.652 2°40.193 314.5 12.8 305 28.3
2008-12-16 09:17:24 51°25.662 2°40.17 313.4 12.8 306 28.6
2008-12-16 09:17:29 51°25.673 2°40.147 313 12.8 304 28.7
2008-12-16 09:17:34 51°25.683 2°40.123 312.4 12.8 304 28.6
2008-12-16 09:17:39 51°25.692 2°40.1 311.6 12.8 304 28.5
2008-12-16 09:17:44 51°25.702 2°40.076 311.1 12.8 304 28.6
2008-12-16 09:17:49 51°25.712 2°40.053 311.2 12.8 304 28.6
2008-12-16 09:17:54 51°25.722 2°40.029 311.4 12.8 304 28.8
2008-12-16 09:17:59 51°25.732 2°40.005 311.2 12.8 305 28.7
2008-12-16 09:18:04 51°25.742 2°39.982 311.5 12.8 304 28.7
2008-12-16 09:18:09 51°25.752 2°39.959 311.9 12.8 305 28.6
2008-12-16 09:18:14 51°25.762 2°39.935 311.8 12.8 305 28.7
2008-12-16 09:18:19 51°25.772 2°39.912 311.6 12.8 304 28.8
2008-12-16 09:18:24 51°25.782 2°39.888 311.3 12.7 304 28.7
2008-12-16 09:18:29 51°25.793 2°39.865 311.6 12.8 305 28.9
2008-12-16 09:18:34 51°25.803 2°39.842 312.4 12.8 306 29.2
2008-12-16 09:18:39 51°25.813 2°39.819 313.1 12.7 307 29.4